sensor_id;sensor_type;location;lat;lon;timestamp;pressure;altitude;pressure_sealevel;temperature;humidity
1371;BME280;14306;49.942;11.570;2022-11-15T00:00:27;97509.09;;;9.15;82.45
1371;BME280;14306;49.942;11.570;2022-11-15T00:02:53;97499.31;;;9.19;81.96
1371;BME280;14306;49.942;11.570;2022-11-15T00:05:19;97501.13;;;9.42;81.31
1371;BME280;14306;49.942;11.570;2022-11-15T00:07:44;97502.38;;;9.31;81.31
1371;BME280;14306;49.942;11.570;2022-11-15T00:10:09;97489.66;;;9.31;81.33
1371;BME280;14306;49.942;11.570;2022-11-15T00:12:35;97495.50;;;9.38;81.38
1371;BME280;14306;49.942;11.570;2022-11-15T00:15:00;97498.72;;;9.40;81.41
1371;BME280;14306;49.942;11.570;2022-11-15T00:17:26;97497.84;;;9.45;80.60
1371;BME280;14306;49.942;11.570;2022-11-15T00:19:51;97484.63;;;9.43;80.84
1371;BME280;14306;49.942;11.570;2022-11-15T00:22:16;97487.84;;;9.45;81.05
1371;BME280;14306;49.942;11.570;2022-11-15T00:24:42;97492.88;;;9.52;80.69
1371;BME280;14306;49.942;11.570;2022-11-15T00:27:07;97491.97;;;9.56;80.45
1371;BME280;14306;49.942;11.570;2022-11-15T00:29:33;97495.63;;;9.47;80.61
1371;BME280;14306;49.942;11.570;2022-11-15T00:31:58;97486.94;;;9.50;80.89
1371;BME280;14306;49.942;11.570;2022-11-15T00:34:24;97479.50;;;9.42;81.21
1371;BME280;14306;49.942;11.570;2022-11-15T00:36:49;97489.88;;;9.35;81.25
1371;BME280;14306;49.942;11.570;2022-11-15T00:39:14;97489.38;;;9.33;81.00
1371;BME280;14306;49.942;11.570;2022-11-15T00:41:39;97486.63;;;9.19;81.31
1371;BME280;14306;49.942;11.570;2022-11-15T00:44:05;97480.97;;;9.16;81.62
1371;BME280;14306;49.942;11.570;2022-11-15T00:46:30;97483.84;;;9.06;82.14
1371;BME280;14306;49.942;11.570;2022-11-15T00:48:55;97483.25;;;8.90;82.82
1371;BME280;14306;49.942;11.570;2022-11-15T00:51:21;97478.38;;;8.92;83.07
1371;BME280;14306;49.942;11.570;2022-11-15T00:53:46;97476.31;;;9.03;82.53
1371;BME280;14306;49.942;11.570;2022-11-15T00:56:11;97480.63;;;9.04;82.94
1371;BME280;14306;49.942;11.570;2022-11-15T00:58:37;97470.19;;;8.97;82.92
1371;BME280;14306;49.942;11.570;2022-11-15T01:01:10;97467.69;;;9.01;82.78
1371;BME280;14306;49.942;11.570;2022-11-15T01:03:37;97469.22;;;9.07;82.19
1371;BME280;14306;49.942;11.570;2022-11-15T01:06:03;97472.94;;;9.11;82.62
1371;BME280;14306;49.942;11.570;2022-11-15T01:08:28;97473.69;;;9.16;82.22
1371;BME280;14306;49.942;11.570;2022-11-15T01:10:53;97470.03;;;9.07;82.42
1371;BME280;14306;49.942;11.570;2022-11-15T01:13:19;97475.22;;;9.04;82.61
1371;BME280;14306;49.942;11.570;2022-11-15T01:15:44;97474.50;;;9.17;81.86
1371;BME280;14306;49.942;11.570;2022-11-15T01:18:10;97471.84;;;9.12;82.73
1371;BME280;14306;49.942;11.570;2022-11-15T01:20:42;97462.78;;;9.21;82.01
1371;BME280;14306;49.942;11.570;2022-11-15T01:23:07;97460.91;;;9.22;81.69
1371;BME280;14306;49.942;11.570;2022-11-15T01:25:33;97458.28;;;9.17;81.82
1371;BME280;14306;49.942;11.570;2022-11-15T01:27:58;97457.91;;;9.05;82.40
1371;BME280;14306;49.942;11.570;2022-11-15T01:30:23;97457.56;;;9.11;82.17
1371;BME280;14306;49.942;11.570;2022-11-15T01:32:49;97452.66;;;8.95;82.47
1371;BME280;14306;49.942;11.570;2022-11-15T01:42:00;97449.31;;;8.84;82.71
1371;BME280;14306;49.942;11.570;2022-11-15T01:44:39;97444.69;;;8.66;83.30
1371;BME280;14306;49.942;11.570;2022-11-15T01:47:17;97440.44;;;8.60;83.40
1371;BME280;14306;49.942;11.570;2022-11-15T01:49:57;97448.81;;;8.40;84.42
1371;BME280;14306;49.942;11.570;2022-11-15T01:52:26;97444.88;;;8.33;84.81
1371;BME280;14306;49.942;11.570;2022-11-15T01:54:59;97440.69;;;8.22;85.29
1371;BME280;14306;49.942;11.570;2022-11-15T01:57:26;97439.28;;;8.24;84.91
1371;BME280;14306;49.942;11.570;2022-11-15T01:59:51;97434.13;;;8.28;84.53
1371;BME280;14306;49.942;11.570;2022-11-15T02:02:17;97444.16;;;8.22;84.71
1371;BME280;14306;49.942;11.570;2022-11-15T02:04:45;97422.59;;;8.22;84.56
1371;BME280;14306;49.942;11.570;2022-11-15T02:07:15;97424.28;;;8.13;84.92
1371;BME280;14306;49.942;11.570;2022-11-15T02:09:41;97422.00;;;8.01;85.90
1371;BME280;14306;49.942;11.570;2022-11-15T02:12:09;97422.22;;;8.05;85.78
1371;BME280;14306;49.942;11.570;2022-11-15T02:14:37;97418.59;;;7.91;86.14
1371;BME280;14306;49.942;11.570;2022-11-15T02:19:49;97414.84;;;7.92;86.17
1371;BME280;14306;49.942;11.570;2022-11-15T02:30:47;97404.44;;;7.80;86.15
1371;BME280;14306;49.942;11.570;2022-11-15T02:39:27;97386.25;;;7.67;87.04
1371;BME280;14306;49.942;11.570;2022-11-15T02:44:32;97381.03;;;7.52;87.45
1371;BME280;14306;49.942;11.570;2022-11-15T02:47:04;97378.84;;;7.54;87.32
1371;BME280;14306;49.942;11.570;2022-11-15T02:49:39;97378.56;;;7.56;87.00
1371;BME280;14306;49.942;11.570;2022-11-15T02:52:06;97370.81;;;7.49;87.81
1371;BME280;14306;49.942;11.570;2022-11-15T02:54:33;97378.28;;;7.57;86.92
1371;BME280;14306;49.942;11.570;2022-11-15T02:57:02;97372.75;;;7.44;87.89
1371;BME280;14306;49.942;11.570;2022-11-15T02:59:38;97372.13;;;7.52;87.41
1371;BME280;14306;49.942;11.570;2022-11-15T03:02:28;97377.31;;;7.43;87.45
1371;BME280;14306;49.942;11.570;2022-11-15T03:07:39;97372.41;;;7.22;87.43
1371;BME280;14306;49.942;11.570;2022-11-15T03:10:17;97363.00;;;7.19;88.10
1371;BME280;14306;49.942;11.570;2022-11-15T03:12:51;97362.88;;;7.06;86.84
1371;BME280;14306;49.942;11.570;2022-11-15T03:15:31;97362.66;;;7.02;87.19
1371;BME280;14306;49.942;11.570;2022-11-15T03:18:21;97361.56;;;7.03;87.56
1371;BME280;14306;49.942;11.570;2022-11-15T03:20:48;97358.53;;;6.76;87.88
1371;BME280;14306;49.942;11.570;2022-11-15T03:23:16;97349.81;;;6.89;87.54
1371;BME280;14306;49.942;11.570;2022-11-15T03:25:46;97351.34;;;6.67;87.63
1371;BME280;14306;49.942;11.570;2022-11-15T03:28:17;97351.66;;;6.60;88.30
1371;BME280;14306;49.942;11.570;2022-11-15T03:30:45;97358.56;;;6.71;87.57
1371;BME280;14306;49.942;11.570;2022-11-15T03:33:13;97356.00;;;6.56;88.39
1371;BME280;14306;49.942;11.570;2022-11-15T03:35:41;97361.06;;;6.63;88.34
1371;BME280;14306;49.942;11.570;2022-11-15T03:38:32;97351.84;;;6.74;87.84
1371;BME280;14306;49.942;11.570;2022-11-15T03:41:04;97358.09;;;6.59;88.58
1371;BME280;14306;49.942;11.570;2022-11-15T03:43:41;97352.78;;;6.54;88.16
1371;BME280;14306;49.942;11.570;2022-11-15T03:46:19;97357.69;;;6.42;88.42
1371;BME280;14306;49.942;11.570;2022-11-15T03:48:54;97352.63;;;6.31;89.37
1371;BME280;14306;49.942;11.570;2022-11-15T03:51:22;97340.84;;;6.27;88.99
1371;BME280;14306;49.942;11.570;2022-11-15T03:53:47;97343.78;;;6.25;89.53
1371;BME280;14306;49.942;11.570;2022-11-15T03:56:13;97334.13;;;6.24;89.11
1371;BME280;14306;49.942;11.570;2022-11-15T03:58:38;97345.97;;;6.23;89.02
1371;BME280;14306;49.942;11.570;2022-11-15T04:01:03;97332.78;;;6.27;89.58
1371;BME280;14306;49.942;11.570;2022-11-15T04:03:29;97331.41;;;6.34;89.09
1371;BME280;14306;49.942;11.570;2022-11-15T04:05:54;97333.31;;;6.29;89.46
1371;BME280;14306;49.942;11.570;2022-11-15T04:08:19;97336.22;;;6.32;89.23
1371;BME280;14306;49.942;11.570;2022-11-15T04:10:45;97339.28;;;6.16;89.28
1371;BME280;14306;49.942;11.570;2022-11-15T04:13:10;97348.94;;;6.22;89.30
1371;BME280;14306;49.942;11.570;2022-11-15T04:15:36;97344.97;;;6.09;89.53
1371;BME280;14306;49.942;11.570;2022-11-15T04:18:01;97335.06;;;6.05;89.75
1371;BME280;14306;49.942;11.570;2022-11-15T04:20:28;97330.75;;;6.09;89.67
1371;BME280;14306;49.942;11.570;2022-11-15T04:23:18;97325.91;;;6.06;89.62
1371;BME280;14306;49.942;11.570;2022-11-15T04:26:04;97335.00;;;6.15;90.08
1371;BME280;14306;49.942;11.570;2022-11-15T04:28:31;97319.47;;;6.02;89.80
1371;BME280;14306;49.942;11.570;2022-11-15T04:30:56;97326.63;;;6.21;89.45
1371;BME280;14306;49.942;11.570;2022-11-15T04:33:22;97329.38;;;6.06;90.48
1371;BME280;14306;49.942;11.570;2022-11-15T04:35:48;97334.47;;;6.13;90.30
1371;BME280;14306;49.942;11.570;2022-11-15T04:38:35;97324.81;;;6.07;90.22
1371;BME280;14306;49.942;11.570;2022-11-15T04:41:00;97322.16;;;6.02;90.88
1371;BME280;14306;49.942;11.570;2022-11-15T04:43:26;97322.56;;;6.29;90.39
1371;BME280;14306;49.942;11.570;2022-11-15T04:45:51;97325.25;;;6.29;90.64
1371;BME280;14306;49.942;11.570;2022-11-15T04:48:17;97315.84;;;6.26;90.46
1371;BME280;14306;49.942;11.570;2022-11-15T04:50:42;97305.88;;;6.32;89.39
1371;BME280;14306;49.942;11.570;2022-11-15T04:53:08;97313.22;;;6.16;90.41
1371;BME280;14306;49.942;11.570;2022-11-15T04:55:33;97301.91;;;6.19;90.00
1371;BME280;14306;49.942;11.570;2022-11-15T04:58:02;97313.75;;;6.18;90.48
1371;BME280;14306;49.942;11.570;2022-11-15T05:00:28;97303.78;;;6.24;89.68
1371;BME280;14306;49.942;11.570;2022-11-15T05:02:55;97306.47;;;6.24;90.79
1371;BME280;14306;49.942;11.570;2022-11-15T05:05:39;97314.22;;;6.30;90.70
1371;BME280;14306;49.942;11.570;2022-11-15T05:08:04;97307.47;;;6.33;90.46
1371;BME280;14306;49.942;11.570;2022-11-15T05:10:30;97305.53;;;6.38;90.45
1371;BME280;14306;49.942;11.570;2022-11-15T05:12:55;97306.06;;;6.40;89.59
1371;BME280;14306;49.942;11.570;2022-11-15T05:15:21;97306.38;;;6.34;90.32
1371;BME280;14306;49.942;11.570;2022-11-15T05:17:47;97299.69;;;6.31;89.97
1371;BME280;14306;49.942;11.570;2022-11-15T05:20:12;97296.66;;;6.43;89.95
1371;BME280;14306;49.942;11.570;2022-11-15T05:22:38;97304.41;;;6.49;90.09
1371;BME280;14306;49.942;11.570;2022-11-15T05:25:04;97295.03;;;6.42;89.94
1371;BME280;14306;49.942;11.570;2022-11-15T05:27:30;97298.53;;;6.42;90.52
1371;BME280;14306;49.942;11.570;2022-11-15T05:29:55;97292.31;;;6.47;89.67
1371;BME280;14306;49.942;11.570;2022-11-15T05:32:21;97302.25;;;6.46;89.48
1371;BME280;14306;49.942;11.570;2022-11-15T05:34:46;97304.66;;;6.48;90.58
1371;BME280;14306;49.942;11.570;2022-11-15T05:37:13;97306.75;;;6.56;90.22
1371;BME280;14306;49.942;11.570;2022-11-15T05:39:39;97302.75;;;6.53;90.40
1371;BME280;14306;49.942;11.570;2022-11-15T05:42:09;97304.63;;;6.53;90.25
1371;BME280;14306;49.942;11.570;2022-11-15T05:44:36;97304.34;;;6.54;90.95
1371;BME280;14306;49.942;11.570;2022-11-15T05:47:08;97302.09;;;6.66;90.12
1371;BME280;14306;49.942;11.570;2022-11-15T05:49:36;97304.84;;;6.61;90.46
1371;BME280;14306;49.942;11.570;2022-11-15T05:52:05;97298.91;;;6.64;90.07
1371;BME280;14306;49.942;11.570;2022-11-15T05:54:32;97309.06;;;6.67;89.91
1371;BME280;14306;49.942;11.570;2022-11-15T05:56:58;97285.75;;;6.58;90.45
1371;BME280;14306;49.942;11.570;2022-11-15T05:59:25;97310.25;;;6.90;89.72
1371;BME280;14306;49.942;11.570;2022-11-15T06:01:50;97304.75;;;7.00;89.61
1371;BME280;14306;49.942;11.570;2022-11-15T06:04:16;97308.66;;;6.89;89.55
1371;BME280;14306;49.942;11.570;2022-11-15T06:06:41;97309.78;;;6.83;90.51
1371;BME280;14306;49.942;11.570;2022-11-15T06:09:07;97302.47;;;6.88;89.87
1371;BME280;14306;49.942;11.570;2022-11-15T06:11:32;97311.38;;;6.84;89.77
1371;BME280;14306;49.942;11.570;2022-11-15T06:13:57;97298.72;;;6.84;90.10
1371;BME280;14306;49.942;11.570;2022-11-15T06:16:23;97300.22;;;6.67;90.39
1371;BME280;14306;49.942;11.570;2022-11-15T06:18:48;97299.13;;;6.68;90.59
1371;BME280;14306;49.942;11.570;2022-11-15T06:21:14;97292.44;;;6.65;90.12
1371;BME280;14306;49.942;11.570;2022-11-15T06:23:39;97302.09;;;6.66;90.60
1371;BME280;14306;49.942;11.570;2022-11-15T06:26:05;97299.13;;;6.68;89.95
1371;BME280;14306;49.942;11.570;2022-11-15T06:28:31;97301.06;;;6.62;90.01
1371;BME280;14306;49.942;11.570;2022-11-15T06:31:08;97300.00;;;6.58;90.22
1371;BME280;14306;49.942;11.570;2022-11-15T06:33:36;97299.19;;;6.58;90.59
1371;BME280;14306;49.942;11.570;2022-11-15T06:36:06;97297.31;;;6.58;90.85
1371;BME280;14306;49.942;11.570;2022-11-15T06:38:32;97295.94;;;6.61;89.91
1371;BME280;14306;49.942;11.570;2022-11-15T06:41:03;97301.75;;;6.78;89.62
1371;BME280;14306;49.942;11.570;2022-11-15T06:43:31;97300.44;;;6.75;89.74
1371;BME280;14306;49.942;11.570;2022-11-15T06:46:00;97298.81;;;6.74;90.41
1371;BME280;14306;49.942;11.570;2022-11-15T06:48:27;97302.53;;;6.78;89.90
1371;BME280;14306;49.942;11.570;2022-11-15T06:50:53;97301.38;;;6.89;89.41
1371;BME280;14306;49.942;11.570;2022-11-15T06:53:22;97308.88;;;6.92;89.41
1371;BME280;14306;49.942;11.570;2022-11-15T06:55:47;97305.84;;;6.99;89.35
1371;BME280;14306;49.942;11.570;2022-11-15T06:58:13;97308.47;;;7.09;89.09
1371;BME280;14306;49.942;11.570;2022-11-15T07:00:38;97301.28;;;7.28;88.42
1371;BME280;14306;49.942;11.570;2022-11-15T07:03:04;97307.00;;;7.92;88.40
1371;BME280;14306;49.942;11.570;2022-11-15T07:05:30;97315.25;;;8.56;87.40
1371;BME280;14306;49.942;11.570;2022-11-15T07:07:56;97313.88;;;9.23;86.08
1371;BME280;14306;49.942;11.570;2022-11-15T07:10:23;97313.84;;;9.68;83.69
1371;BME280;14306;49.942;11.570;2022-11-15T07:12:53;97321.34;;;10.39;81.89
1371;BME280;14306;49.942;11.570;2022-11-15T07:15:21;97321.69;;;11.34;81.07
1371;BME280;14306;49.942;11.570;2022-11-15T07:17:46;97317.50;;;11.50;76.65
1371;BME280;14306;49.942;11.570;2022-11-15T07:22:39;97325.59;;;12.11;74.76
1371;BME280;14306;49.942;11.570;2022-11-15T07:25:05;97319.44;;;12.53;72.58
1371;BME280;14306;49.942;11.570;2022-11-15T07:27:31;97317.06;;;12.86;71.43
1371;BME280;14306;49.942;11.570;2022-11-15T07:29:56;97315.59;;;12.88;70.99
1371;BME280;14306;49.942;11.570;2022-11-15T07:32:22;97311.06;;;13.89;67.96
1371;BME280;14306;49.942;11.570;2022-11-15T07:34:47;97308.09;;;13.74;65.00
1371;BME280;14306;49.942;11.570;2022-11-15T07:37:12;97306.63;;;13.30;65.63
1371;BME280;14306;49.942;11.570;2022-11-15T07:39:38;97305.34;;;13.28;67.78
1371;BME280;14306;49.942;11.570;2022-11-15T07:42:03;97301.75;;;13.53;65.93
1371;BME280;14306;49.942;11.570;2022-11-15T07:44:48;97289.38;;;12.92;66.13
1371;BME280;14306;49.942;11.570;2022-11-15T07:47:13;97286.00;;;12.27;67.51
1371;BME280;14306;49.942;11.570;2022-11-15T07:49:39;97298.16;;;12.38;67.42
1371;BME280;14306;49.942;11.570;2022-11-15T07:52:04;97292.09;;;13.01;66.43
1371;BME280;14306;49.942;11.570;2022-11-15T07:54:29;97282.84;;;13.56;64.26
1371;BME280;14306;49.942;11.570;2022-11-15T07:56:55;97284.94;;;13.05;64.52
1371;BME280;14306;49.942;11.570;2022-11-15T07:59:20;97285.38;;;13.99;63.71
1371;BME280;14306;49.942;11.570;2022-11-15T08:01:46;97289.09;;;13.57;65.16
1371;BME280;14306;49.942;11.570;2022-11-15T08:04:11;97296.25;;;14.77;61.55
1371;BME280;14306;49.942;11.570;2022-11-15T08:06:37;97272.19;;;14.09;61.32
1371;BME280;14306;49.942;11.570;2022-11-15T08:09:03;97273.38;;;13.16;63.94
1371;BME280;14306;49.942;11.570;2022-11-15T08:11:28;97277.75;;;13.55;61.99
1371;BME280;14306;49.942;11.570;2022-11-15T08:13:53;97265.72;;;12.16;65.62
1371;BME280;14306;49.942;11.570;2022-11-15T08:16:19;97271.25;;;11.94;67.23
1371;BME280;14306;49.942;11.570;2022-11-15T08:18:45;97262.03;;;12.29;66.81
1371;BME280;14306;49.942;11.570;2022-11-15T08:21:13;97264.31;;;12.61;65.02
1371;BME280;14306;49.942;11.570;2022-11-15T08:23:39;97268.94;;;12.35;65.08
1371;BME280;14306;49.942;11.570;2022-11-15T08:26:05;97272.19;;;11.81;67.72
1371;BME280;14306;49.942;11.570;2022-11-15T08:28:31;97264.13;;;12.49;65.68
1371;BME280;14306;49.942;11.570;2022-11-15T08:30:57;97264.75;;;12.21;65.59
1371;BME280;14306;49.942;11.570;2022-11-15T08:33:22;97257.38;;;12.13;66.24
1371;BME280;14306;49.942;11.570;2022-11-15T08:35:48;97258.22;;;12.90;64.01
1371;BME280;14306;49.942;11.570;2022-11-15T08:38:14;97252.94;;;12.51;64.48
1371;BME280;14306;49.942;11.570;2022-11-15T08:40:40;97269.06;;;13.07;62.85
1371;BME280;14306;49.942;11.570;2022-11-15T08:43:05;97246.69;;;12.76;63.34
1371;BME280;14306;49.942;11.570;2022-11-15T08:45:31;97243.53;;;12.31;64.37
1371;BME280;14306;49.942;11.570;2022-11-15T08:47:57;97256.84;;;13.38;61.33
1371;BME280;14306;49.942;11.570;2022-11-15T08:50:23;97243.50;;;12.99;62.40
1371;BME280;14306;49.942;11.570;2022-11-15T08:52:48;97243.34;;;12.70;63.36
1371;BME280;14306;49.942;11.570;2022-11-15T08:55:14;97238.34;;;11.78;66.74
1371;BME280;14306;49.942;11.570;2022-11-15T08:57:39;97227.00;;;11.37;67.73
1371;BME280;14306;49.942;11.570;2022-11-15T09:00:05;97230.88;;;11.14;69.08
1371;BME280;14306;49.942;11.570;2022-11-15T09:02:31;97235.84;;;11.21;69.14
1371;BME280;14306;49.942;11.570;2022-11-15T09:04:59;97228.03;;;11.19;69.64
1371;BME280;14306;49.942;11.570;2022-11-15T09:07:26;97229.50;;;11.25;69.43
1371;BME280;14306;49.942;11.570;2022-11-15T09:09:51;97222.63;;;10.89;70.93
1371;BME280;14306;49.942;11.570;2022-11-15T09:12:17;97233.00;;;10.95;70.69
1371;BME280;14306;49.942;11.570;2022-11-15T09:14:47;97232.53;;;11.24;70.19
1371;BME280;14306;49.942;11.570;2022-11-15T09:17:13;97229.19;;;11.74;68.29
1371;BME280;14306;49.942;11.570;2022-11-15T09:19:38;97232.72;;;11.36;70.15
1371;BME280;14306;49.942;11.570;2022-11-15T09:22:07;97236.31;;;11.53;69.28
1371;BME280;14306;49.942;11.570;2022-11-15T09:24:34;97241.28;;;11.21;70.28
1371;BME280;14306;49.942;11.570;2022-11-15T09:27:00;97230.38;;;10.82;71.60
1371;BME280;14306;49.942;11.570;2022-11-15T09:29:25;97231.59;;;10.98;71.20
1371;BME280;14306;49.942;11.570;2022-11-15T09:31:54;97222.31;;;10.90;71.18
1371;BME280;14306;49.942;11.570;2022-11-15T09:34:20;97235.88;;;10.99;70.94
1371;BME280;14306;49.942;11.570;2022-11-15T09:36:46;97232.78;;;10.83;71.32
1371;BME280;14306;49.942;11.570;2022-11-15T09:39:11;97229.94;;;10.88;71.49
1371;BME280;14306;49.942;11.570;2022-11-15T09:46:58;97218.97;;;10.93;71.50
1371;BME280;14306;49.942;11.570;2022-11-15T09:49:29;97217.06;;;10.94;71.75
1371;BME280;14306;49.942;11.570;2022-11-15T09:51:55;97216.91;;;10.90;71.60
1371;BME280;14306;49.942;11.570;2022-11-15T09:54:35;97207.19;;;10.98;71.27
1371;BME280;14306;49.942;11.570;2022-11-15T09:57:20;97198.59;;;11.35;70.59
1371;BME280;14306;49.942;11.570;2022-11-15T10:05:39;97199.72;;;11.42;70.15
1371;BME280;14306;49.942;11.570;2022-11-15T10:11:10;97184.94;;;11.48;69.38
1371;BME280;14306;49.942;11.570;2022-11-15T10:13:43;97184.31;;;11.60;69.01
1371;BME280;14306;49.942;11.570;2022-11-15T10:21:20;97180.47;;;11.52;68.44
1371;BME280;14306;49.942;11.570;2022-11-15T10:23:47;97170.81;;;11.85;67.89
1371;BME280;14306;49.942;11.570;2022-11-15T10:26:16;97163.34;;;12.00;67.34
1371;BME280;14306;49.942;11.570;2022-11-15T10:28:42;97157.09;;;11.99;67.03
1371;BME280;14306;49.942;11.570;2022-11-15T10:31:33;97159.00;;;11.90;67.26
1371;BME280;14306;49.942;11.570;2022-11-15T10:34:19;97162.69;;;12.20;66.85
1371;BME280;14306;49.942;11.570;2022-11-15T10:36:47;97152.31;;;12.22;66.43
1371;BME280;14306;49.942;11.570;2022-11-15T10:39:19;97143.72;;;12.11;66.77
1371;BME280;14306;49.942;11.570;2022-11-15T10:41:44;97143.69;;;12.03;66.53
1371;BME280;14306;49.942;11.570;2022-11-15T10:44:25;97140.19;;;12.02;67.05
1371;BME280;14306;49.942;11.570;2022-11-15T10:49:27;97133.59;;;12.37;66.28
1371;BME280;14306;49.942;11.570;2022-11-15T10:54:50;97130.41;;;12.44;65.93
1371;BME280;14306;49.942;11.570;2022-11-15T10:57:23;97116.97;;;12.47;65.71
1371;BME280;14306;49.942;11.570;2022-11-15T10:59:53;97122.53;;;12.68;64.67
1371;BME280;14306;49.942;11.570;2022-11-15T11:04:56;97119.69;;;12.56;65.48
1371;BME280;14306;49.942;11.570;2022-11-15T11:07:25;97114.88;;;12.61;65.47
1371;BME280;14306;49.942;11.570;2022-11-15T11:12:55;97103.09;;;12.95;64.73
1371;BME280;14306;49.942;11.570;2022-11-15T11:15:24;97105.84;;;12.78;65.36
1371;BME280;14306;49.942;11.570;2022-11-15T11:18:06;97079.88;;;12.60;65.39
1371;BME280;14306;49.942;11.570;2022-11-15T11:25:56;97085.13;;;13.11;64.63
1371;BME280;14306;49.942;11.570;2022-11-15T11:37:20;97075.84;;;13.41;64.19
1371;BME280;14306;49.942;11.570;2022-11-15T11:42:20;97065.50;;;13.55;63.61
1371;BME280;14306;49.942;11.570;2022-11-15T11:47:31;97061.44;;;13.61;63.24
1371;BME280;14306;49.942;11.570;2022-11-15T11:50:10;97064.38;;;13.76;63.27
1371;BME280;14306;49.942;11.570;2022-11-15T11:53:00;97060.63;;;13.81;62.75
1371;BME280;14306;49.942;11.570;2022-11-15T11:55:36;97055.88;;;13.78;63.11
1371;BME280;14306;49.942;11.570;2022-11-15T12:03:50;97046.00;;;14.06;62.42
1371;BME280;14306;49.942;11.570;2022-11-15T12:09:00;97049.72;;;14.22;61.85
1371;BME280;14306;49.942;11.570;2022-11-15T12:11:43;97046.59;;;14.32;62.05
1371;BME280;14306;49.942;11.570;2022-11-15T12:14:36;97047.25;;;14.29;61.49
1371;BME280;14306;49.942;11.570;2022-11-15T12:17:03;97046.97;;;14.54;60.65
1371;BME280;14306;49.942;11.570;2022-11-15T12:19:30;97045.06;;;14.67;60.32
1371;BME280;14306;49.942;11.570;2022-11-15T12:22:08;97038.94;;;14.70;59.97
1371;BME280;14306;49.942;11.570;2022-11-15T12:24:45;97032.34;;;14.71;59.79
1371;BME280;14306;49.942;11.570;2022-11-15T12:30:19;97028.94;;;14.74;59.99
1371;BME280;14306;49.942;11.570;2022-11-15T12:32:59;97018.81;;;14.62;60.31
1371;BME280;14306;49.942;11.570;2022-11-15T12:35:57;97024.19;;;14.83;59.76
1371;BME280;14306;49.942;11.570;2022-11-15T12:38:52;97017.69;;;15.11;59.29
1371;BME280;14306;49.942;11.570;2022-11-15T12:41:29;97020.88;;;14.89;58.90
1371;BME280;14306;49.942;11.570;2022-11-15T12:43:55;97019.88;;;14.70;59.28
1371;BME280;14306;49.942;11.570;2022-11-15T13:02:19;96986.78;;;14.15;61.09
1371;BME280;14306;49.942;11.570;2022-11-15T13:04:46;96989.66;;;14.18;61.07
1371;BME280;14306;49.942;11.570;2022-11-15T13:09:59;96984.06;;;14.15;61.53
1371;BME280;14306;49.942;11.570;2022-11-15T13:14:58;96991.75;;;14.21;61.68
1371;BME280;14306;49.942;11.570;2022-11-15T13:21:05;96986.44;;;14.37;61.39
1371;BME280;14306;49.942;11.570;2022-11-15T13:23:53;96979.75;;;14.46;61.41
1371;BME280;14306;49.942;11.570;2022-11-15T13:26:18;96980.41;;;14.43;60.80
1371;BME280;14306;49.942;11.570;2022-11-15T13:28:47;96978.41;;;14.64;60.93
1371;BME280;14306;49.942;11.570;2022-11-15T13:31:27;96976.59;;;14.80;60.08
1371;BME280;14306;49.942;11.570;2022-11-15T13:33:57;96967.03;;;14.62;60.38
1371;BME280;14306;49.942;11.570;2022-11-15T13:36:30;96968.06;;;14.82;60.07
1371;BME280;14306;49.942;11.570;2022-11-15T13:39:27;96974.19;;;14.91;59.85
1371;BME280;14306;49.942;11.570;2022-11-15T13:41:52;96963.41;;;14.94;59.87
1371;BME280;14306;49.942;11.570;2022-11-15T13:44:21;96965.78;;;15.08;59.71
1371;BME280;14306;49.942;11.570;2022-11-15T13:46:47;96973.00;;;15.28;58.91
1371;BME280;14306;49.942;11.570;2022-11-15T13:49:12;96958.22;;;15.29;58.95
1371;BME280;14306;49.942;11.570;2022-11-15T13:51:50;96961.19;;;15.36;58.64
1371;BME280;14306;49.942;11.570;2022-11-15T13:54:40;96967.78;;;15.63;58.03
1371;BME280;14306;49.942;11.570;2022-11-15T13:57:15;96958.31;;;15.44;58.10
1371;BME280;14306;49.942;11.570;2022-11-15T13:59:53;96958.31;;;15.72;57.83
1371;BME280;14306;49.942;11.570;2022-11-15T14:02:25;96961.16;;;15.76;57.71
1371;BME280;14306;49.942;11.570;2022-11-15T14:04:57;96951.34;;;15.87;57.76
1371;BME280;14306;49.942;11.570;2022-11-15T14:07:25;96951.00;;;15.88;57.64
1371;BME280;14306;49.942;11.570;2022-11-15T14:09:52;96938.72;;;15.82;57.48
1371;BME280;14306;49.942;11.570;2022-11-15T14:12:50;96941.16;;;15.72;57.96
1371;BME280;14306;49.942;11.570;2022-11-15T14:15:31;96932.00;;;15.52;58.30
1371;BME280;14306;49.942;11.570;2022-11-15T14:17:58;96930.84;;;15.65;58.06
1371;BME280;14306;49.942;11.570;2022-11-15T14:22:53;96924.72;;;15.56;58.42
1371;BME280;14306;49.942;11.570;2022-11-15T14:25:23;96920.25;;;15.64;57.81
1371;BME280;14306;49.942;11.570;2022-11-15T14:28:12;96909.34;;;15.24;58.74
1371;BME280;14306;49.942;11.570;2022-11-15T14:30:42;96900.06;;;15.13;58.61
1371;BME280;14306;49.942;11.570;2022-11-15T14:33:33;96891.00;;;14.97;59.51
1371;BME280;14306;49.942;11.570;2022-11-15T14:36:05;96882.75;;;14.69;60.29
1371;BME280;14306;49.942;11.570;2022-11-15T14:38:31;96873.44;;;14.70;60.58
1371;BME280;14306;49.942;11.570;2022-11-15T14:40:57;96878.13;;;14.58;61.00
1371;BME280;14306;49.942;11.570;2022-11-15T14:43:23;96861.66;;;14.42;61.18
1371;BME280;14306;49.942;11.570;2022-11-15T14:45:49;96856.88;;;14.39;61.66
1371;BME280;14306;49.942;11.570;2022-11-15T14:48:14;96867.91;;;14.43;61.86
1371;BME280;14306;49.942;11.570;2022-11-15T14:50:40;96855.75;;;14.40;61.99
1371;BME280;14306;49.942;11.570;2022-11-15T14:53:06;96860.31;;;14.48;61.61
1371;BME280;14306;49.942;11.570;2022-11-15T14:55:34;96863.00;;;14.60;61.25
1371;BME280;14306;49.942;11.570;2022-11-15T14:58:04;96869.72;;;14.63;61.77
1371;BME280;14306;49.942;11.570;2022-11-15T15:00:36;96863.47;;;14.50;61.92
1371;BME280;14306;49.942;11.570;2022-11-15T15:03:03;96864.13;;;14.59;61.70
1371;BME280;14306;49.942;11.570;2022-11-15T15:05:37;96857.03;;;14.43;62.35
1371;BME280;14306;49.942;11.570;2022-11-15T15:08:03;96849.41;;;14.36;62.85
1371;BME280;14306;49.942;11.570;2022-11-15T15:10:35;96852.34;;;14.31;62.79
1371;BME280;14306;49.942;11.570;2022-11-15T15:13:02;96850.22;;;14.25;62.60
1371;BME280;14306;49.942;11.570;2022-11-15T15:15:35;96839.16;;;13.97;63.78